Time;durP1;ratioP1;P1;durP2;ratioP2;P2;SDS_P1;SDS_P2;PMS_P1;PMS_P2;Temp;Humidity;BMP_temperature;BMP_pressure;BME280_temperature;BME280_humidity;BME280_pressure;Samples;Min_cycle;Max_cycle;Signal;HPM_P1;HPM_P2
2020/12/25 00:00:45;;;;;;;35.83;28.30;;;5.50;99.90;;;;;;4989212;28;20227;-64
2020/12/25 00:03:14;;;;;;;1.37;1.23;;;5.50;99.90;;;;;;4989170;28;20698;-64
2020/12/25 00:05:41;;;;;;;0.70;0.70;;;5.50;99.90;;;;;;4988942;28;20212;-64
2020/12/25 00:08:07;;;;;;;1.00;0.87;;;5.50;99.90;;;;;;4989141;28;20234;-65
2020/12/25 00:10:33;;;;;;;1.10;1.00;;;5.50;99.90;;;;;;4988884;28;20207;-65
2020/12/25 00:12:59;;;;;;;0.70;0.70;;;5.40;99.90;;;;;;4988983;28;20216;-65
2020/12/25 00:15:25;;;;;;;1.03;0.80;;;5.40;99.90;;;;;;4988960;28;20207;-65
2020/12/25 00:17:52;;;;;;;0.80;0.80;;;5.50;99.90;;;;;;4988906;28;20207;-65
2020/12/25 00:20:18;;;;;;;0.70;0.70;;;5.50;99.90;;;;;;4989441;28;20285;-65
2020/12/25 00:22:45;;;;;;;0.93;0.90;;;5.50;99.90;;;;;;4989303;28;20235;-65
2020/12/25 00:25:11;;;;;;;1.33;0.70;;;5.40;99.90;;;;;;4988744;28;20215;-65
2020/12/25 00:27:37;;;;;;;0.80;0.80;;;5.50;99.90;;;;;;4988991;28;20212;-65
2020/12/25 00:30:03;;;;;;;0.60;0.60;;;5.50;99.90;;;;;;4989290;28;20617;-65
2020/12/25 00:32:31;;;;;;;0.73;0.73;;;5.50;99.90;;;;;;4988934;28;20238;-64
2020/12/25 00:34:58;;;;;;;0.60;0.60;;;5.50;99.90;;;;;;4988455;28;20257;-64
2020/12/25 00:37:24;;;;;;;0.83;0.83;;;5.40;99.90;;;;;;4988819;28;20208;-65
2020/12/25 00:39:50;;;;;;;0.80;0.80;;;5.40;99.90;;;;;;4988716;28;20238;-65
2020/12/25 00:42:16;;;;;;;1.10;1.00;;;5.40;99.90;;;;;;4988616;28;20265;-65
2020/12/25 00:44:42;;;;;;;1.17;1.00;;;5.50;99.90;;;;;;4988348;28;20207;-65
2020/12/25 00:47:09;;;;;;;1.20;1.00;;;5.60;99.90;;;;;;4988704;28;20214;-66
2020/12/25 00:49:35;;;;;;;0.80;0.80;;;5.60;99.90;;;;;;4992030;28;20212;-63
2020/12/25 00:52:02;;;;;;;1.43;0.63;;;5.60;99.90;;;;;;4992638;28;20232;-64
2020/12/25 00:54:28;;;;;;;1.57;1.20;;;5.60;99.90;;;;;;4992447;28;20586;-64
2020/12/25 00:56:54;;;;;;;1.20;1.10;;;5.60;99.90;;;;;;4992633;28;20249;-64
2020/12/25 00:59:20;;;;;;;1.60;1.50;;;5.60;99.90;;;;;;4992206;28;20268;-64
2020/12/25 01:01:50;;;;;;;1.47;1.37;;;5.50;99.90;;;;;;4992162;28;20243;-64
2020/12/25 01:04:16;;;;;;;1.70;1.60;;;5.50;99.90;;;;;;4992450;28;20481;-63
2020/12/25 01:06:42;;;;;;;1.57;1.30;;;5.50;99.90;;;;;;4992396;28;20212;-63
2020/12/25 01:09:09;;;;;;;1.40;1.30;;;5.50;99.90;;;;;;4991341;28;20730;-63
2020/12/25 01:11:36;;;;;;;1.43;1.33;;;5.60;99.90;;;;;;4993535;28;20232;-64
2020/12/25 01:14:02;;;;;;;1.23;1.20;;;5.60;99.90;;;;;;4993234;28;20208;-65
2020/12/25 01:16:28;;;;;;;1.40;1.30;;;5.60;99.90;;;;;;4991969;28;20699;-64
2020/12/25 01:18:54;;;;;;;1.07;1.07;;;5.60;99.90;;;;;;4991791;28;20214;-64
2020/12/25 01:21:20;;;;;;;1.20;0.97;;;5.60;99.90;;;;;;4991482;28;20242;-64
2020/12/25 01:23:47;;;;;;;1.20;1.10;;;5.50;99.90;;;;;;4991490;28;20208;-64
2020/12/25 01:26:14;;;;;;;0.83;0.83;;;5.60;99.90;;;;;;4991913;28;20208;-64
2020/12/25 01:28:40;;;;;;;0.93;0.93;;;5.60;99.90;;;;;;4991672;28;20212;-64
2020/12/25 01:31:06;;;;;;;1.00;1.00;;;5.60;99.90;;;;;;4992299;28;20235;-65
2020/12/25 01:33:33;;;;;;;1.03;1.03;;;5.60;99.90;;;;;;4991810;28;20207;-64
2020/12/25 01:36:00;;;;;;;0.93;0.93;;;5.60;99.90;;;;;;4991891;28;20204;-64
2020/12/25 01:38:27;;;;;;;0.80;0.80;;;5.60;99.90;;;;;;4991331;28;20212;-64
2020/12/25 01:40:53;;;;;;;0.80;0.80;;;5.60;99.90;;;;;;4991256;28;20268;-64
2020/12/25 01:43:20;;;;;;;1.00;1.00;;;5.60;99.90;;;;;;4991113;28;20595;-64
2020/12/25 01:45:46;;;;;;;0.90;0.90;;;5.60;99.90;;;;;;4990929;28;20215;-64
2020/12/25 01:48:13;;;;;;;1.43;0.97;;;5.60;99.90;;;;;;4990699;28;20668;-63
2020/12/25 01:50:39;;;;;;;0.70;0.70;;;5.60;99.90;;;;;;4991087;28;20208;-63
2020/12/25 01:53:08;;;;;;;0.80;0.80;;;5.50;99.90;;;;;;4991228;28;20204;-63
2020/12/25 01:55:34;;;;;;;1.30;1.20;;;5.50;99.90;;;;;;4990616;28;20212;-66
2020/12/25 01:58:01;;;;;;;1.30;1.20;;;5.50;99.90;;;;;;4991048;28;20222;-63
2020/12/25 02:00:30;;;;;;;1.53;1.43;;;5.60;99.90;;;;;;4989900;28;20281;-63
2020/12/25 02:02:56;;;;;;;1.57;1.47;;;5.60;99.90;;;;;;4990882;28;20571;-63
2020/12/25 02:05:23;;;;;;;2.13;1.60;;;5.50;99.90;;;;;;4990484;28;20207;-64
2020/12/25 02:07:50;;;;;;;1.60;1.50;;;5.50;99.90;;;;;;4990870;28;20211;-64
2020/12/25 02:10:17;;;;;;;1.60;1.50;;;5.50;99.90;;;;;;4991380;28;20215;-64
2020/12/25 02:12:44;;;;;;;1.80;1.70;;;5.50;99.90;;;;;;4991036;28;20235;-64
2020/12/25 02:15:10;;;;;;;1.60;1.50;;;5.50;99.90;;;;;;4990679;28;20218;-63
2020/12/25 02:17:44;;;;;;;1.80;1.70;;;5.60;99.90;;;;;;4990934;28;20268;-64
2020/12/25 02:20:10;;;;;;;1.80;1.70;;;5.50;99.90;;;;;;4990823;28;20208;-64
2020/12/25 02:22:37;;;;;;;1.90;1.80;;;5.50;99.90;;;;;;4990691;28;20741;-64
2020/12/25 02:25:03;;;;;;;2.17;2.00;;;5.50;99.90;;;;;;4990239;28;20218;-63
2020/12/25 02:27:30;;;;;;;2.07;1.97;;;5.60;99.90;;;;;;4990465;28;20203;-64
2020/12/25 02:29:56;;;;;;;3.30;2.50;;;5.50;99.90;;;;;;4990270;28;20219;-63
2020/12/25 02:32:22;;;;;;;2.10;1.90;;;5.50;99.90;;;;;;4990520;28;20220;-63
2020/12/25 02:34:48;;;;;;;2.13;2.00;;;5.50;99.90;;;;;;4989919;28;20208;-64
2020/12/25 02:37:14;;;;;;;1.90;1.80;;;5.50;99.90;;;;;;4990297;28;20212;-64
2020/12/25 02:39:41;;;;;;;1.90;1.80;;;5.50;99.90;;;;;;4990252;28;20207;-64
2020/12/25 02:42:11;;;;;;;1.87;1.63;;;5.50;99.90;;;;;;4990312;28;20243;-62
2020/12/25 02:44:37;;;;;;;2.07;1.97;;;5.50;99.90;;;;;;4989841;28;20211;-62
2020/12/25 02:47:04;;;;;;;2.33;2.13;;;5.50;99.90;;;;;;4990125;28;20215;-63
2020/12/25 02:49:30;;;;;;;2.30;2.10;;;5.50;99.90;;;;;;4989884;28;20594;-65
2020/12/25 02:51:56;;;;;;;2.17;1.97;;;5.40;99.90;;;;;;4989897;28;20230;-63
2020/12/25 02:54:22;;;;;;;2.07;1.90;;;5.30;99.90;;;;;;4989470;28;20212;-62
2020/12/25 02:56:49;;;;;;;2.20;2.00;;;5.10;99.90;;;;;;4989796;28;20294;-63
2020/12/25 02:59:16;;;;;;;2.30;2.10;;;5.10;99.90;;;;;;4989490;28;20619;-62
2020/12/25 03:01:42;;;;;;;2.73;2.50;;;5.20;99.90;;;;;;4989847;28;20251;-62
2020/12/25 03:04:08;;;;;;;2.77;2.50;;;5.30;99.90;;;;;;4989692;28;20218;-62
2020/12/25 03:06:35;;;;;;;2.70;2.50;;;5.40;99.90;;;;;;4990269;28;20627;-65
2020/12/25 03:09:01;;;;;;;2.97;2.50;;;5.40;99.90;;;;;;4989684;28;20589;-62
2020/12/25 03:11:27;;;;;;;3.00;2.70;;;5.40;99.90;;;;;;4989720;28;20613;-63
2020/12/25 03:13:54;;;;;;;3.00;2.70;;;5.40;99.90;;;;;;4989622;28;20200;-62
2020/12/25 03:16:20;;;;;;;5.67;2.77;;;5.40;99.90;;;;;;4990078;28;20618;-66
2020/12/25 03:18:46;;;;;;;3.33;3.03;;;5.40;99.90;;;;;;4990529;28;20231;-63
2020/12/25 03:21:13;;;;;;;3.20;2.93;;;5.50;99.90;;;;;;4990238;28;20227;-63
2020/12/25 03:23:39;;;;;;;3.33;3.03;;;5.60;99.90;;;;;;4990317;28;20709;-63
2020/12/25 03:26:05;;;;;;;9.63;7.00;;;5.60;99.90;;;;;;4993017;28;20212;-64
2020/12/25 03:28:32;;;;;;;5.07;3.83;;;5.60;99.90;;;;;;4991363;28;20204;-64
2020/12/25 03:30:59;;;;;;;7.03;5.17;;;5.70;99.90;;;;;;4990438;28;20223;-64
2020/12/25 03:33:25;;;;;;;6.60;5.33;;;5.80;99.90;;;;;;4990861;28;20211;-63
2020/12/25 03:35:51;;;;;;;4.00;3.40;;;5.80;99.90;;;;;;4991305;28;20695;-64
2020/12/25 03:38:18;;;;;;;4.00;3.60;;;5.80;99.90;;;;;;4989176;28;20706;-63
2020/12/25 03:40:44;;;;;;;4.10;3.70;;;5.80;99.90;;;;;;4989289;28;20230;-63
2020/12/25 03:43:10;;;;;;;4.40;4.00;;;5.90;99.90;;;;;;4989294;28;20235;-63
2020/12/25 03:45:36;;;;;;;5.10;4.60;;;5.80;99.90;;;;;;4988800;28;20688;-63
2020/12/25 03:48:03;;;;;;;6.30;4.50;;;5.80;99.90;;;;;;4989009;28;20226;-63
2020/12/25 03:50:30;;;;;;;4.73;4.20;;;5.90;99.90;;;;;;4988718;28;20215;-63
2020/12/25 03:52:56;;;;;;;5.30;4.30;;;5.90;99.90;;;;;;4988842;28;20234;-64
2020/12/25 03:55:23;;;;;;;5.33;4.83;;;5.80;99.90;;;;;;4988877;28;20680;-63
2020/12/25 03:57:49;;;;;;;6.23;4.80;;;5.80;99.90;;;;;;4989133;28;20214;-63
2020/12/25 04:00:15;;;;;;;5.43;4.50;;;5.90;99.90;;;;;;4988942;28;20212;-64
2020/12/25 04:02:41;;;;;;;5.60;5.10;;;5.90;99.90;;;;;;4989532;28;20320;-64
2020/12/25 04:05:08;;;;;;;5.00;4.50;;;5.90;99.90;;;;;;4988943;28;20204;-64
2020/12/25 04:07:35;;;;;;;5.97;5.10;;;6.00;99.90;;;;;;4988902;28;20218;-65
2020/12/25 04:10:01;;;;;;;5.70;4.93;;;5.90;99.90;;;;;;4989728;28;20289;-65
2020/12/25 04:12:27;;;;;;;5.77;4.73;;;6.00;99.90;;;;;;4988838;28;20258;-63
2020/12/25 04:14:54;;;;;;;5.57;4.70;;;5.90;99.90;;;;;;4988977;28;20630;-64
2020/12/25 04:17:20;;;;;;;5.57;4.30;;;5.90;99.90;;;;;;4988979;28;20207;-64
2020/12/25 04:19:46;;;;;;;5.27;4.77;;;5.90;99.90;;;;;;4989007;28;20207;-64
2020/12/25 04:22:13;;;;;;;5.87;4.87;;;5.90;99.90;;;;;;4989382;28;20239;-65
2020/12/25 04:24:39;;;;;;;5.93;4.83;;;5.90;99.90;;;;;;4992262;28;20698;-64
2020/12/25 04:27:05;;;;;;;5.70;5.00;;;6.00;99.90;;;;;;4992574;28;20212;-63
2020/12/25 04:29:32;;;;;;;6.07;4.83;;;6.00;99.90;;;;;;4993487;28;20208;-63
2020/12/25 04:31:58;;;;;;;7.80;4.80;;;6.00;99.90;;;;;;4995153;28;20224;-64
2020/12/25 04:34:24;;;;;;;5.90;5.27;;;6.00;99.90;;;;;;4992078;28;20212;-63
2020/12/25 04:36:50;;;;;;;5.03;4.53;;;6.10;99.90;;;;;;4994683;28;20656;-63
2020/12/25 04:39:17;;;;;;;5.77;5.17;;;6.10;99.90;;;;;;4995758;28;20302;-63
2020/12/25 04:41:43;;;;;;;5.70;5.07;;;6.10;99.90;;;;;;4995482;28;20711;-64
2020/12/25 04:44:10;;;;;;;5.13;4.57;;;6.10;99.90;;;;;;4995334;28;20211;-64
2020/12/25 04:46:36;;;;;;;5.90;5.17;;;6.10;99.90;;;;;;4995015;28;20234;-64
2020/12/25 04:49:03;;;;;;;6.13;5.13;;;6.10;99.90;;;;;;4993031;28;20215;-63
2020/12/25 04:51:29;;;;;;;5.80;4.87;;;6.10;99.90;;;;;;4993493;28;20259;-64
2020/12/25 04:53:55;;;;;;;6.87;5.10;;;6.20;99.90;;;;;;4992950;28;20237;-64
2020/12/25 04:56:24;;;;;;;5.30;4.80;;;6.20;99.90;;;;;;4992539;28;20211;-64
2020/12/25 04:58:51;;;;;;;5.47;4.97;;;6.20;99.90;;;;;;4992712;28;20724;-64
2020/12/25 05:01:18;;;;;;;5.77;5.17;;;6.10;99.90;;;;;;4992502;28;20239;-63
2020/12/25 05:03:45;;;;;;;5.67;5.10;;;6.10;99.90;;;;;;4992527;28;20212;-64
2020/12/25 05:06:13;;;;;;;6.83;5.47;;;6.10;99.90;;;;;;4992759;28;20211;-64
2020/12/25 05:08:41;;;;;;;6.43;5.03;;;6.10;99.90;;;;;;4992465;28;20280;-63
2020/12/25 05:11:08;;;;;;;5.10;4.53;;;6.10;99.90;;;;;;4992189;28;20228;-64
2020/12/25 05:13:40;;;;;;;5.90;5.27;;;6.00;99.90;;;;;;4992179;28;20208;-64
2020/12/25 05:16:07;;;;;;;5.40;4.90;;;6.00;99.90;;;;;;4992376;28;20204;-64
2020/12/25 05:18:35;;;;;;;7.17;5.50;;;6.10;99.90;;;;;;4991904;28;20672;-64
2020/12/25 05:21:08;;;;;;;5.07;4.57;;;6.10;99.90;;;;;;4991797;28;20227;-63
2020/12/25 05:23:36;;;;;;;5.73;4.67;;;6.10;99.90;;;;;;4991737;28;20750;-64
2020/12/25 05:26:05;;;;;;;5.37;4.87;;;6.20;99.90;;;;;;4992393;28;20211;-64
2020/12/25 05:28:37;;;;;;;5.13;4.63;;;6.20;99.90;;;;;;4991994;28;20204;-64
2020/12/25 05:31:04;;;;;;;5.47;4.97;;;6.20;99.90;;;;;;4992176;28;20310;-64
2020/12/25 05:33:32;;;;;;;7.03;4.97;;;6.20;99.90;;;;;;4991963;28;20208;-64
2020/12/25 05:35:58;;;;;;;5.33;4.80;;;6.30;99.90;;;;;;4992741;28;20218;-64
2020/12/25 05:38:27;;;;;;;6.40;4.97;;;6.30;99.90;;;;;;4992341;28;20625;-64
2020/12/25 05:40:53;;;;;;;5.50;4.90;;;6.30;99.90;;;;;;4991694;28;20227;-64
2020/12/25 05:43:20;;;;;;;6.37;4.97;;;6.30;99.90;;;;;;4991475;28;20216;-64
2020/12/25 05:45:47;;;;;;;6.80;5.67;;;6.30;99.90;;;;;;4991349;28;20211;-64
2020/12/25 05:48:14;;;;;;;5.47;4.97;;;6.30;99.90;;;;;;4991138;28;20208;-64
2020/12/25 05:50:42;;;;;;;5.73;5.13;;;6.20;99.90;;;;;;4991366;28;20199;-64
2020/12/25 05:53:08;;;;;;;5.83;4.97;;;6.20;99.90;;;;;;4991515;28;20257;-66
2020/12/25 05:55:36;;;;;;;5.57;4.97;;;6.30;99.90;;;;;;4991039;28;20594;-63
2020/12/25 05:58:03;;;;;;;5.70;5.10;;;6.20;99.90;;;;;;4991042;28;20212;-63
2020/12/25 06:00:30;;;;;;;6.40;5.07;;;6.20;99.90;;;;;;4991319;28;20730;-64
2020/12/25 06:02:57;;;;;;;5.60;5.00;;;6.10;99.90;;;;;;4991352;28;20731;-64
2020/12/25 06:05:25;;;;;;;7.27;5.30;;;6.10;99.90;;;;;;4991167;28;20241;-63
2020/12/25 06:07:53;;;;;;;6.77;5.40;;;6.10;99.90;;;;;;4990790;28;20699;-63
2020/12/25 06:10:20;;;;;;;5.97;5.37;;;6.20;99.90;;;;;;4991201;28;20238;-64
2020/12/25 06:12:47;;;;;;;6.10;5.50;;;6.20;99.90;;;;;;4991307;28;20393;-64
2020/12/25 06:15:20;;;;;;;7.73;5.90;;;6.30;99.90;;;;;;4990596;28;20204;-63
2020/12/25 06:18:01;;;;;;;6.57;5.63;;;6.30;99.90;;;;;;4991405;28;20575;-64
2020/12/25 06:20:34;;;;;;;6.93;6.10;;;6.40;99.90;;;;;;4992243;28;20211;-64
2020/12/25 06:23:04;;;;;;;6.40;5.30;;;6.40;99.90;;;;;;4992080;28;20224;-64
2020/12/25 06:25:31;;;;;;;6.00;5.27;;;6.40;99.90;;;;;;4991322;28;20262;-65
2020/12/25 06:28:00;;;;;;;5.50;5.00;;;6.50;99.90;;;;;;4991743;28;20222;-64
2020/12/25 06:30:27;;;;;;;6.43;5.23;;;6.50;99.90;;;;;;4991928;28;20592;-65
2020/12/25 06:32:55;;;;;;;5.63;4.90;;;6.50;99.90;;;;;;4991369;28;20236;-64
2020/12/25 06:35:31;;;;;;;6.70;6.00;;;6.50;99.90;;;;;;4991693;28;20208;-64
2020/12/25 06:37:57;;;;;;;6.13;5.53;;;6.50;99.90;;;;;;4990706;28;20249;-63
2020/12/25 06:40:24;;;;;;;6.17;5.40;;;6.50;99.90;;;;;;4990901;28;20208;-63
2020/12/25 06:42:53;;;;;;;12.67;8.90;;;6.40;99.90;;;;;;4990453;28;20314;-63
2020/12/25 06:45:23;;;;;;;5.57;5.07;;;6.40;99.90;;;;;;4989668;28;20207;-63
2020/12/25 06:47:49;;;;;;;8.47;5.97;;;6.30;99.90;;;;;;4990411;28;20562;-63
2020/12/25 06:50:16;;;;;;;11.67;8.13;;;6.30;99.90;;;;;;4990982;28;20208;-63
2020/12/25 06:52:53;;;;;;;6.50;5.63;;;6.30;99.90;;;;;;4990605;28;20224;-63
2020/12/25 06:55:20;;;;;;;7.13;6.37;;;6.40;99.90;;;;;;4990089;28;20217;-63
2020/12/25 06:57:47;;;;;;;9.60;6.53;;;6.40;99.90;;;;;;4990308;28;20212;-63
2020/12/25 07:00:13;;;;;;;5.83;5.23;;;6.40;99.90;;;;;;4990721;28;20215;-63
2020/12/25 07:02:40;;;;;;;10.00;7.90;;;6.40;99.90;;;;;;4990492;28;20757;-63
2020/12/25 07:05:08;;;;;;;5.83;5.23;;;6.40;99.90;;;;;;4991375;28;20298;-63
2020/12/25 07:07:34;;;;;;;5.63;5.03;;;6.50;99.90;;;;;;4991870;28;20207;-63
2020/12/25 07:10:09;;;;;;;5.97;5.20;;;6.50;99.90;;;;;;4992983;28;20204;-63
2020/12/25 07:12:36;;;;;;;6.30;5.23;;;6.50;99.90;;;;;;4991878;28;20238;-64
2020/12/25 07:15:04;;;;;;;5.00;4.50;;;6.40;99.90;;;;;;4992686;28;20208;-63
2020/12/25 07:17:31;;;;;;;6.30;5.40;;;6.40;99.90;;;;;;4992830;28;20318;-64
2020/12/25 07:19:57;;;;;;;5.10;4.27;;;6.30;99.90;;;;;;4992127;28;20216;-63
2020/12/25 07:22:23;;;;;;;7.30;4.77;;;6.30;99.90;;;;;;4991496;28;20257;-64
2020/12/25 07:24:50;;;;;;;6.50;4.77;;;6.40;99.90;;;;;;4991523;28;20579;-64
2020/12/25 07:27:17;;;;;;;7.87;5.93;;;6.30;99.90;;;;;;4991190;28;20694;-64
2020/12/25 07:29:45;;;;;;;6.13;5.17;;;6.30;99.90;;;;;;4991470;28;20237;-63
2020/12/25 07:32:12;;;;;;;5.93;5.33;;;6.40;99.90;;;;;;4992304;28;20224;-64
2020/12/25 07:34:40;;;;;;;7.97;6.60;;;6.30;99.90;;;;;;4991908;28;20207;-64
2020/12/25 07:37:09;;;;;;;7.40;6.03;;;6.40;99.90;;;;;;4992884;28;20214;-64
2020/12/25 07:39:35;;;;;;;8.63;7.07;;;6.40;99.90;;;;;;4991736;28;20294;-64
2020/12/25 07:42:01;;;;;;;7.77;6.20;;;6.50;99.90;;;;;;4991346;28;20227;-64
2020/12/25 07:44:28;;;;;;;7.33;5.60;;;6.50;99.90;;;;;;4991436;28;20608;-64
2020/12/25 07:46:54;;;;;;;6.83;5.87;;;6.50;99.90;;;;;;4992133;28;20207;-64
2020/12/25 07:49:21;;;;;;;9.37;6.53;;;6.50;99.90;;;;;;4991231;28;20223;-64
2020/12/25 07:51:48;;;;;;;7.57;6.00;;;6.60;99.90;;;;;;4992287;28;20223;-64
2020/12/25 07:54:16;;;;;;;6.60;5.70;;;6.60;99.90;;;;;;4992859;28;20204;-64
2020/12/25 07:56:43;;;;;;;8.17;5.50;;;6.70;99.90;;;;;;4992150;28;20216;-64
2020/12/25 07:59:09;;;;;;;7.30;6.07;;;6.70;99.90;;;;;;4995685;28;20219;-64
2020/12/25 08:01:37;;;;;;;8.27;6.30;;;6.70;99.90;;;;;;4996283;28;20231;-64
2020/12/25 08:04:05;;;;;;;6.20;5.60;;;6.80;99.90;;;;;;4994487;28;20219;-64
2020/12/25 08:06:32;;;;;;;6.47;5.77;;;6.70;99.90;;;;;;4994268;28;20219;-64
2020/12/25 08:09:04;;;;;;;5.77;5.17;;;6.60;99.90;;;;;;4993750;28;20211;-64
2020/12/25 08:11:32;;;;;;;6.07;5.13;;;6.50;99.90;;;;;;4993601;28;20227;-63
2020/12/25 08:14:03;;;;;;;5.30;4.80;;;6.30;99.90;;;;;;4993662;28;20215;-64
2020/12/25 08:16:31;;;;;;;6.53;5.30;;;6.30;99.90;;;;;;4994872;28;20188;-63
2020/12/25 08:18:58;;;;;;;5.13;4.63;;;6.30;99.90;;;;;;4993748;28;20563;-64
2020/12/25 08:21:31;;;;;;;7.30;5.00;;;6.20;99.90;;;;;;4992752;28;20223;-64
2020/12/25 08:23:57;;;;;;;5.47;4.43;;;6.10;99.90;;;;;;4992559;28;20215;-64
2020/12/25 08:26:30;;;;;;;6.30;4.57;;;6.00;99.90;;;;;;4993063;28;20212;-63
2020/12/25 08:28:56;;;;;;;6.20;5.07;;;5.90;99.90;;;;;;4993123;28;20247;-64
2020/12/25 08:31:23;;;;;;;8.13;5.13;;;5.90;99.90;;;;;;4992808;28;20231;-64
2020/12/25 08:33:53;;;;;;;6.13;4.60;;;6.00;99.90;;;;;;4992619;28;20212;-64
2020/12/25 08:36:20;;;;;;;6.77;4.73;;;6.00;99.90;;;;;;4993195;28;20247;-64
2020/12/25 08:38:46;;;;;;;6.87;5.20;;;5.90;99.90;;;;;;4992327;28;20207;-64
2020/12/25 08:41:12;;;;;;;6.83;4.87;;;5.90;99.90;;;;;;4992450;28;20323;-64
2020/12/25 08:43:39;;;;;;;7.33;5.10;;;6.00;99.90;;;;;;4992373;28;20204;-63
2020/12/25 08:46:05;;;;;;;7.57;4.83;;;6.10;99.90;;;;;;4992454;28;20284;-64
2020/12/25 08:48:32;;;;;;;7.20;5.40;;;6.20;99.90;;;;;;4992818;28;20218;-64
2020/12/25 08:51:08;;;;;;;8.70;5.10;;;6.30;99.90;;;;;;4992315;28;20220;-64
2020/12/25 08:53:36;;;;;;;7.37;5.20;;;6.40;99.90;;;;;;4992610;28;20207;-64
2020/12/25 08:56:14;;;;;;;6.53;5.20;;;6.40;99.90;;;;;;4992941;28;20214;-64
2020/12/25 08:58:41;;;;;;;6.70;5.27;;;6.30;99.90;;;;;;4992420;28;20222;-64
2020/12/25 09:01:07;;;;;;;7.97;5.30;;;6.30;99.90;;;;;;4992622;28;20228;-63
2020/12/25 09:03:41;;;;;;;7.77;5.53;;;6.30;99.90;;;;;;4992206;28;20698;-64
2020/12/25 09:06:08;;;;;;;9.80;6.43;;;6.50;99.90;;;;;;4992197;28;20577;-63
2020/12/25 09:08:35;;;;;;;8.10;5.80;;;6.50;99.90;;;;;;4991609;28;20215;-64
2020/12/25 09:13:29;;;;;;;7.97;5.57;;;6.70;99.90;;;;;;5051563;28;20214;-63
2020/12/25 09:15:55;;;;;;;7.03;6.30;;;6.80;99.90;;;;;;5053601;28;20206;-64
2020/12/25 09:18:21;;;;;;;7.97;6.07;;;6.90;99.90;;;;;;5052957;28;20208;-65
2020/12/25 09:20:47;;;;;;;7.70;6.57;;;7.00;99.90;;;;;;5053100;28;20201;-64
2020/12/25 09:23:14;;;;;;;8.73;6.93;;;7.10;99.90;;;;;;5072488;28;20240;-64
2020/12/25 09:25:41;;;;;;;9.27;6.87;;;7.20;99.90;;;;;;5072787;28;20205;-66
2020/12/25 09:28:07;;;;;;;7.83;6.77;;;7.30;99.90;;;;;;5072691;28;20555;-65
2020/12/25 09:30:33;;;;;;;9.23;7.17;;;7.30;99.90;;;;;;5073362;28;20213;-64
2020/12/25 09:32:59;;;;;;;8.20;6.50;;;7.40;99.90;;;;;;5073384;28;20220;-65
2020/12/25 09:35:25;;;;;;;9.00;6.47;;;7.50;99.90;;;;;;5072973;28;20212;-64
2020/12/25 09:37:51;;;;;;;8.37;5.60;;;7.50;99.90;;;;;;5072815;28;20201;-65
2020/12/25 09:40:18;;;;;;;7.37;5.20;;;7.60;99.90;;;;;;5073332;28;20644;-65
2020/12/25 09:42:45;;;;;;;8.23;4.73;;;7.50;99.90;;;;;;5072677;28;20302;-65
2020/12/25 09:45:11;;;;;;;5.57;4.70;;;7.50;99.90;;;;;;5072716;28;20227;-65
2020/12/25 09:47:37;;;;;;;7.93;5.83;;;7.40;99.90;;;;;;5073096;28;20204;-66
2020/12/25 09:50:04;;;;;;;6.93;4.67;;;7.30;99.90;;;;;;5074031;28;20213;-61
2020/12/25 09:52:30;;;;;;;6.90;5.20;;;7.10;99.90;;;;;;5079504;28;20225;-62
2020/12/25 09:54:56;;;;;;;9.03;5.60;;;6.90;99.90;;;;;;5077920;28;20209;-62
2020/12/25 09:57:23;;;;;;;8.37;5.33;;;6.60;99.90;;;;;;5079461;28;20214;-62
2020/12/25 09:59:51;;;;;;;6.30;4.80;;;6.50;99.90;;;;;;5080984;28;20258;-63
2020/12/25 10:02:17;;;;;;;5.77;5.03;;;6.40;99.90;;;;;;5081930;28;20232;-63
2020/12/25 10:04:44;;;;;;;6.07;4.83;;;6.50;99.90;;;;;;5081523;28;20228;-63
2020/12/25 10:07:10;;;;;;;5.87;4.27;;;6.50;99.90;;;;;;5082308;28;20668;-62
2020/12/25 10:09:36;;;;;;;6.43;4.63;;;6.60;99.90;;;;;;5078403;28;20205;-62
2020/12/25 10:12:02;;;;;;;9.27;4.27;;;6.60;99.90;;;;;;5080079;28;20232;-62
2020/12/25 10:14:28;;;;;;;7.77;5.27;;;6.50;99.90;;;;;;5079845;28;20479;-62
2020/12/25 10:16:56;;;;;;;6.07;4.80;;;6.40;99.90;;;;;;5081348;28;20233;-62
2020/12/25 10:19:23;;;;;;;4.73;4.23;;;6.20;99.90;;;;;;5084215;28;20204;-61
2020/12/25 10:21:49;;;;;;;5.80;4.50;;;6.20;99.90;;;;;;5083337;28;20224;-62
2020/12/25 10:24:15;;;;;;;6.47;4.30;;;6.10;99.90;;;;;;5084421;28;20234;-62
2020/12/25 10:26:42;;;;;;;5.77;4.20;;;6.10;99.90;;;;;;5084190;28;20273;-62
2020/12/25 10:29:08;;;;;;;7.00;4.57;;;6.10;99.90;;;;;;5086710;28;20452;-63
2020/12/25 10:31:35;;;;;;;5.93;4.17;;;6.10;99.90;;;;;;5074290;28;20221;-64
2020/12/25 10:34:02;;;;;;;5.00;4.30;;;6.00;99.90;;;;;;5072585;28;20205;-67
2020/12/25 10:36:28;;;;;;;7.77;4.90;;;6.00;99.90;;;;;;5071888;28;20212;-66
2020/12/25 10:38:54;;;;;;;5.30;4.20;;;5.90;99.90;;;;;;5071289;28;20205;-67
2020/12/25 10:41:21;;;;;;;4.37;3.97;;;6.00;99.90;;;;;;5071616;28;20693;-65
2020/12/25 10:43:47;;;;;;;4.70;3.87;;;6.00;99.90;;;;;;5071728;28;20208;-67
2020/12/25 10:46:19;;;;;;;6.77;5.03;;;6.00;99.90;;;;;;5072058;28;20626;-68
2020/12/25 10:48:45;;;;;;;5.33;4.13;;;5.90;99.90;;;;;;5071672;28;20235;-67
2020/12/25 10:51:12;;;;;;;6.30;4.87;;;6.10;99.90;;;;;;5071529;28;20204;-66
2020/12/25 10:53:39;;;;;;;6.90;4.93;;;6.30;99.90;;;;;;5071361;28;20200;-67
2020/12/25 10:56:06;;;;;;;5.60;4.20;;;6.40;99.90;;;;;;5071599;28;20205;-67
2020/12/25 10:58:32;;;;;;;6.10;4.63;;;6.50;99.90;;;;;;5071431;28;20236;-67
2020/12/25 11:00:58;;;;;;;4.80;3.93;;;6.60;99.90;;;;;;5071799;28;20219;-67
2020/12/25 11:03:24;;;;;;;4.10;3.70;;;6.60;99.90;;;;;;5072718;28;20558;-66
2020/12/25 11:05:50;;;;;;;4.30;3.63;;;6.50;99.90;;;;;;5071699;28;20216;-67
2020/12/25 11:08:17;;;;;;;4.53;3.57;;;6.50;99.90;;;;;;5070973;28;20216;-67
2020/12/25 11:10:44;;;;;;;4.40;3.60;;;6.20;99.90;;;;;;5072052;28;20200;-65
2020/12/25 11:13:10;;;;;;;4.63;3.50;;;5.90;99.90;;;;;;5071515;28;20237;-67
2020/12/25 11:15:39;;;;;;;4.83;3.40;;;5.60;99.90;;;;;;5070919;28;20208;-68
2020/12/25 11:18:05;;;;;;;4.43;3.30;;;5.40;99.90;;;;;;5070906;28;20258;-64
2020/12/25 11:20:31;;;;;;;3.83;3.30;;;5.30;99.90;;;;;;5070597;28;20686;-65
2020/12/25 11:22:58;;;;;;;4.80;3.53;;;5.20;99.90;;;;;;5071324;28;20259;-65
2020/12/25 11:25:25;;;;;;;4.43;3.23;;;5.20;99.90;;;;;;5072251;28;20254;-66
2020/12/25 11:27:51;;;;;;;3.10;2.80;;;5.30;99.90;;;;;;5071412;28;20683;-64
2020/12/25 11:30:17;;;;;;;3.33;2.83;;;5.40;99.90;;;;;;5071213;28;20571;-65
2020/12/25 11:32:43;;;;;;;5.03;3.10;;;5.40;99.90;;;;;;5070901;28;20229;-65
2020/12/25 11:35:09;;;;;;;4.47;3.20;;;5.40;99.90;;;;;;5070778;28;20201;-66
2020/12/25 11:37:35;;;;;;;6.67;3.60;;;5.50;99.90;;;;;;5071079;28;20208;-63
2020/12/25 11:40:02;;;;;;;5.37;3.70;;;5.50;99.90;;;;;;5071060;28;20559;-65
2020/12/25 11:42:29;;;;;;;4.20;3.47;;;5.60;99.90;;;;;;5070974;28;20286;-65
2020/12/25 11:44:55;;;;;;;4.10;3.43;;;5.70;99.90;;;;;;5070806;28;20205;-66
2020/12/25 11:47:21;;;;;;;3.97;3.30;;;5.70;99.90;;;;;;5070735;28;20209;-66
2020/12/25 11:49:47;;;;;;;4.30;3.70;;;5.80;99.90;;;;;;5070520;28;20208;-67
2020/12/25 11:52:13;;;;;;;4.47;3.70;;;5.70;99.90;;;;;;5070874;28;20228;-66
2020/12/25 11:54:40;;;;;;;4.73;3.43;;;5.80;99.90;;;;;;5070590;28;20306;-66
2020/12/25 11:57:06;;;;;;;4.47;3.63;;;5.80;99.90;;;;;;5070615;28;20216;-66
2020/12/25 11:59:33;;;;;;;6.13;3.90;;;5.90;99.90;;;;;;5070552;28;20204;-66
2020/12/25 12:01:59;;;;;;;3.40;3.10;;;6.00;99.90;;;;;;5070424;28;20692;-66
2020/12/25 12:04:25;;;;;;;4.20;3.10;;;6.10;99.90;;;;;;5070407;28;20204;-66
2020/12/25 12:06:51;;;;;;;5.33;3.47;;;6.10;99.90;;;;;;5070877;28;20209;-66
2020/12/25 12:09:17;;;;;;;4.37;3.10;;;6.20;99.90;;;;;;5070392;28;20215;-67
2020/12/25 12:11:44;;;;;;;5.30;3.57;;;6.20;99.90;;;;;;5070331;28;20228;-67
2020/12/25 12:14:10;;;;;;;5.83;3.20;;;6.30;99.90;;;;;;5070263;28;20673;-67
2020/12/25 12:16:37;;;;;;;4.47;3.47;;;6.40;99.90;;;;;;5070412;28;20209;-65
2020/12/25 12:19:03;;;;;;;3.50;2.90;;;6.30;99.90;;;;;;5070524;28;20205;-67
2020/12/25 12:21:29;;;;;;;3.43;2.73;;;6.20;99.90;;;;;;5070588;28;20224;-65
2020/12/25 12:23:55;;;;;;;4.57;2.83;;;6.30;99.90;;;;;;5069905;28;20205;-66
2020/12/25 12:26:23;;;;;;;3.50;2.70;;;6.20;99.90;;;;;;5070790;28;20201;-67
2020/12/25 12:28:49;;;;;;;3.27;2.87;;;6.10;99.90;;;;;;5070331;28;20696;-67
2020/12/25 12:31:15;;;;;;;5.10;3.30;;;6.00;99.90;;;;;;5070530;28;20291;-67
2020/12/25 12:33:42;;;;;;;3.97;3.00;;;6.00;99.90;;;;;;5070216;28;20204;-66
2020/12/25 12:36:09;;;;;;;3.67;2.90;;;5.80;99.90;;;;;;5070297;28;20209;-67
2020/12/25 12:38:35;;;;;;;6.30;3.20;;;5.70;99.90;;;;;;5070259;28;20212;-67
2020/12/25 12:41:01;;;;;;;3.60;3.00;;;5.70;99.90;;;;;;5070319;28;20212;-66
2020/12/25 12:43:28;;;;;;;3.17;2.87;;;5.50;99.90;;;;;;5070950;28;20207;-66
2020/12/25 12:45:54;;;;;;;6.40;3.10;;;5.50;99.90;;;;;;5074115;28;20669;-67
2020/12/25 12:48:20;;;;;;;3.97;2.90;;;5.40;99.90;;;;;;5073838;28;20201;-67
2020/12/25 12:50:49;;;;;;;4.23;2.53;;;5.50;99.90;;;;;;5074095;28;20209;-67
2020/12/25 12:53:15;;;;;;;3.10;2.53;;;5.30;99.90;;;;;;5073812;28;20274;-65
2020/12/25 12:55:41;;;;;;;5.23;3.20;;;5.10;99.90;;;;;;5073480;28;20207;-66
2020/12/25 12:58:07;;;;;;;3.67;2.30;;;5.10;99.90;;;;;;5073435;28;20625;-67